Aviation Digital Data Service (ADDS)

Output produced by METARs form (0506 UTC 21 January 2019)
found at http://www.aviationweather.gov/metar/data/
 
Forecast for: KSYR (SYRACUSE , NY, US)
Text: KSYR 202320Z 2100/2124 33010G20KT 1 1/2SM -SHSN BLSN OVC015
Forecast period: 0000 to 1200 UTC 21 January 2019
Forecast type: FROM: standard forecast or significant change
Winds: from the NNW (330 degrees) at 12 MPH (10 knots; 5.1 m/s)
gusting to 23 MPH (20 knots; 10.3 m/s)
Visibility: 1.50 miles (2.41 km)
Ceiling: 1500 feet AGL
Clouds: overcast cloud deck at 1500 feet AGL
Weather: -SHSN BLSN  (light snow showers, blowing snow)
Text: FM211200 30020G30KT 2SM -SHSN BLSN OVC015
Forecast period: 1200 to 2000 UTC 21 January 2019
Forecast type: FROM: standard forecast or significant change
Winds: from the WNW (300 degrees) at 23 MPH (20 knots; 10.3 m/s)
gusting to 34 MPH (30 knots; 15.4 m/s)
Visibility: 2.00 miles (3.22 km)
Ceiling: 1500 feet AGL
Clouds: overcast cloud deck at 1500 feet AGL
Weather: -SHSN BLSN  (light snow showers, blowing snow)
Text: FM212000 29020G30KT P6SM OVC050
Forecast period: 2000 UTC 21 January 2019 to 0000 UTC 22 January 2019
Forecast type: FROM: standard forecast or significant change
Winds: from the WNW (290 degrees) at 23 MPH (20 knots; 10.3 m/s)
gusting to 34 MPH (30 knots; 15.4 m/s)
Visibility: 6 or more miles 10+ km)
Ceiling: 5000 feet AGL
Clouds: overcast cloud deck at 5000 feet AGL
Weather: no significant weather forecast for this period